West Vancouver, British Columbia

10:39 PM PDT on July 28, 2016 (GMT -0700)
Ambleside | | Change Station

Elev 10 ft 49.33 °N, 123.15 °W | Updated 14 minutes ago

Clear
Clear
72.2 °F
Feels Like 74 °F
N
1.0
Wind Variable Wind from North
Gusts 4.0 mph

Today
High -- | Low -- °F
--% Chance of Precip.
Yesterday
High -- | Low -- °F
Precip. -- in
Pressure 30.01 in
Visibility 30.0 miles
Clouds Clear
Heat Index 74 °F
Dew Point 63 °F
Humidity 72%
Rainfall 0.00 in
Snow Depth Not available.
5:39 AM 8:57 PM
Waning Crescent, 25% visible
METAR CYVR 290500Z 29010KT 30SM SKC 20/17 A3000 RMK SLP160 DENSITY ALT 400FT
Pressure 30.01 in
Visibility 30.0 miles
Clouds Clear
Heat Index 74 °F
Dew Point 63 °F
Humidity 72%
Rainfall 0.00 in
Snow Depth Not available.
5:39 AM 8:57 PM
Waning Crescent, 25% visible
METAR CYVR 290500Z 29010KT 30SM SKC 20/17 A3000 RMK SLP160 DENSITY ALT 400FT

10-Day Weather Forecast

Almanac

Astronomy

Jul. 28, 2016 Rise Set
Actual Time
Civil Twilight
Nautical Twilight
Astronomical Twilight
Moon
Length of Visible Light
Length of Day
Tomorrow will be .
, % of the Moon is Illuminated

Today's Extremes

Country Highs Country Lows

Community

WunderPhotos

Upload Photos

1,928,299 photos uploaded!

WunderBlog® & News

Nearby

Air Quality

  Air Quality AQ Index Pollutant
Not available.

Snow Depth

Station Depth Elevation

Earthquake Activity

City Distance Mag. Time & Date
Minimum magnitude displayed is 2.5.

Coastal Water Temperatures

Place Temperature

Stations

Nearby Weather Stations

Station Location Temp. Windchill Dew Point Humidity Wind Precip. Elev Updated Type
                   

Watches & Warnings

There are currently no watches in effect.